createdAt,value
2024-05-09T00:00:15.530Z,11.65
2024-05-09T00:03:24.407Z,11.63
2024-05-09T00:06:11.046Z,11.62
2024-05-09T00:08:57.433Z,11.60
2024-05-09T00:11:43.656Z,11.58
2024-05-09T00:14:30.082Z,11.59
2024-05-09T00:17:16.154Z,11.60
2024-05-09T00:20:04.111Z,11.63
2024-05-09T00:22:53.401Z,11.63
2024-05-09T00:25:39.839Z,11.58
2024-05-09T00:28:26.073Z,11.52
2024-05-09T00:31:12.240Z,11.44
2024-05-09T00:33:58.564Z,11.38
2024-05-09T00:36:44.930Z,11.31
2024-05-09T00:39:31.125Z,11.26
2024-05-09T00:42:17.253Z,11.22
2024-05-09T00:45:03.512Z,11.13
2024-05-09T00:47:50.532Z,11.08
2024-05-09T00:50:42.587Z,11.07
2024-05-09T00:53:29.392Z,11.03
2024-05-09T00:56:16.795Z,10.95
2024-05-09T00:59:02.982Z,10.83
2024-05-09T01:01:50.171Z,10.75
2024-05-09T01:04:36.488Z,10.68
2024-05-09T01:07:23.666Z,10.63
2024-05-09T01:10:14.324Z,10.59
2024-05-09T01:13:07.739Z,10.52
2024-05-09T01:15:54.198Z,10.47
2024-05-09T01:18:40.615Z,10.46
2024-05-09T01:21:27.253Z,10.49
2024-05-09T01:24:13.197Z,10.50
2024-05-09T01:26:59.548Z,10.51
2024-05-09T01:29:45.991Z,10.51
2024-05-09T01:32:32.074Z,10.48
2024-05-09T01:35:23.175Z,10.44
2024-05-09T01:38:12.544Z,10.40
2024-05-09T01:40:59.010Z,10.34
2024-05-09T01:43:45.092Z,10.30
2024-05-09T01:46:31.076Z,10.27
2024-05-09T01:49:17.434Z,10.25
2024-05-09T01:52:04.097Z,10.24
2024-05-09T01:54:53.600Z,10.21
2024-05-09T01:57:39.915Z,10.17
2024-05-09T02:00:37.660Z,10.13
2024-05-09T02:03:27.449Z,10.13
2024-05-09T02:06:13.757Z,10.13
2024-05-09T02:08:59.669Z,10.09
2024-05-09T02:11:47.685Z,10.03
2024-05-09T02:14:34.080Z,9.95
2024-05-09T02:17:20.129Z,9.87
2024-05-09T02:20:06.731Z,9.79
2024-05-09T02:22:52.861Z,9.72
2024-05-09T02:25:41.919Z,9.68
2024-05-09T02:28:27.856Z,9.67
2024-05-09T02:31:14.498Z,9.63
2024-05-09T02:34:01.101Z,9.60
2024-05-09T02:36:47.986Z,9.53
2024-05-09T02:39:34.145Z,9.45
2024-05-09T02:42:21.294Z,9.44
2024-05-09T02:45:07.621Z,9.44
2024-05-09T02:47:55.403Z,9.42
2024-05-09T02:50:42.167Z,9.42
2024-05-09T02:53:28.425Z,9.35
2024-05-09T02:56:14.473Z,9.31
2024-05-09T02:59:00.660Z,9.32
2024-05-09T03:01:47.058Z,9.30
2024-05-09T03:04:33.480Z,9.26
2024-05-09T03:07:20.377Z,9.20
2024-05-09T03:10:14.606Z,9.10
2024-05-09T03:13:14.970Z,9.07
2024-05-09T03:16:02.527Z,9.09
2024-05-09T03:18:48.682Z,9.10
2024-05-09T03:21:40.530Z,9.06
2024-05-09T03:24:26.595Z,9.04
2024-05-09T03:27:12.969Z,9.01
2024-05-09T03:29:59.073Z,8.97
2024-05-09T03:32:45.436Z,8.94
2024-05-09T03:35:31.529Z,8.92
2024-05-09T03:38:17.644Z,8.91
2024-05-09T03:41:04.611Z,8.91
2024-05-09T03:43:51.289Z,8.91
2024-05-09T03:46:38.478Z,8.92
2024-05-09T03:49:25.207Z,8.97
2024-05-09T03:52:11.423Z,9.00
2024-05-09T03:54:57.830Z,8.99
2024-05-09T03:57:44.238Z,9.01
2024-05-09T04:00:36.896Z,9.05
2024-05-09T04:03:25.235Z,9.03
2024-05-09T04:06:12.091Z,9.04
2024-05-09T04:08:58.673Z,9.03
2024-05-09T04:11:45.158Z,9.06
2024-05-09T04:14:34.000Z,9.10
2024-05-09T04:17:20.242Z,9.13
2024-05-09T04:20:08.621Z,9.12
2024-05-09T04:22:56.777Z,9.15
2024-05-09T04:25:44.050Z,9.20
2024-05-09T04:28:30.543Z,9.23
2024-05-09T04:31:16.774Z,9.27
2024-05-09T04:34:04.326Z,9.30
2024-05-09T04:36:50.956Z,9.32
2024-05-09T04:39:37.106Z,9.40
2024-05-09T04:42:23.924Z,9.49
2024-05-09T04:45:10.594Z,9.56
2024-05-09T04:47:56.974Z,9.64
2024-05-09T04:50:43.325Z,9.75
2024-05-09T04:53:29.334Z,9.89
2024-05-09T04:56:15.504Z,9.96
2024-05-09T04:59:01.573Z,10.04
2024-05-09T05:01:47.762Z,10.15
2024-05-09T05:04:33.974Z,10.31
2024-05-09T05:07:20.066Z,10.47
2024-05-09T05:10:09.333Z,10.61
2024-05-09T05:13:16.683Z,10.74
2024-05-09T05:16:04.711Z,10.85
2024-05-09T05:18:51.211Z,10.94
2024-05-09T05:21:39.026Z,11.06
2024-05-09T05:24:25.156Z,11.16
2024-05-09T05:27:11.245Z,11.28
2024-05-09T05:29:57.563Z,11.43
2024-05-09T05:32:44.063Z,11.57
2024-05-09T05:35:30.477Z,11.73
2024-05-09T05:38:17.025Z,11.88
2024-05-09T05:41:03.586Z,12.00
2024-05-09T05:43:49.825Z,12.09
2024-05-09T05:46:35.844Z,12.15
2024-05-09T05:49:23.156Z,12.28
2024-05-09T05:52:10.930Z,12.39
2024-05-09T05:54:57.090Z,12.52
2024-05-09T05:57:43.492Z,12.65
2024-05-09T06:00:37.607Z,12.77
2024-05-09T06:03:25.776Z,12.91
2024-05-09T06:06:13.466Z,13.04
2024-05-09T06:08:59.802Z,13.16
2024-05-09T06:11:47.677Z,13.23
2024-05-09T06:14:33.802Z,13.34
2024-05-09T06:17:19.866Z,13.45
2024-05-09T06:20:13.250Z,13.57
2024-05-09T06:23:03.981Z,13.69
2024-05-09T06:25:53.088Z,13.74
2024-05-09T06:28:39.211Z,13.79
2024-05-09T06:31:25.391Z,13.85
2024-05-09T06:34:12.114Z,13.92
2024-05-09T06:36:58.014Z,14.02
2024-05-09T06:39:45.571Z,14.12
2024-05-09T06:42:32.802Z,14.24
2024-05-09T06:45:23.543Z,14.36
2024-05-09T06:48:10.471Z,14.39
2024-05-09T06:50:56.854Z,14.42
2024-05-09T06:53:43.085Z,14.48
2024-05-09T06:56:29.257Z,14.64
2024-05-09T06:59:15.235Z,14.75
2024-05-09T07:02:01.341Z,14.87
2024-05-09T07:04:47.945Z,15.00
2024-05-09T07:07:34.470Z,15.09
2024-05-09T07:10:28.656Z,15.21
2024-05-09T07:13:18.939Z,15.39
2024-05-09T07:16:05.288Z,15.56
2024-05-09T07:18:54.853Z,15.71
2024-05-09T07:21:43.704Z,15.83
2024-05-09T07:24:29.790Z,15.78
2024-05-09T07:27:16.055Z,15.85
2024-05-09T07:30:03.934Z,15.99
2024-05-09T07:32:52.204Z,16.05
2024-05-09T07:35:38.905Z,16.10
2024-05-09T07:38:25.160Z,16.24
2024-05-09T07:41:11.149Z,16.35
2024-05-09T07:43:57.396Z,16.46
2024-05-09T07:53:30.191Z,16.85
2024-05-09T07:55:29.042Z,16.95
2024-05-09T07:58:15.310Z,16.99
2024-05-09T08:01:04.278Z,17.04
2024-05-09T08:03:53.520Z,17.15
2024-05-09T08:06:40.090Z,17.25
2024-05-09T08:09:26.082Z,17.33
2024-05-09T08:12:15.091Z,17.36
2024-05-09T08:15:01.334Z,17.35
2024-05-09T08:17:47.501Z,17.37
2024-05-09T08:20:35.348Z,17.42
2024-05-09T08:23:23.496Z,17.52
2024-05-09T08:26:11.341Z,17.68
2024-05-09T08:28:57.337Z,17.76
2024-05-09T08:31:43.667Z,17.82
2024-05-09T08:34:30.114Z,17.91
2024-05-09T08:37:22.133Z,17.97
2024-05-09T08:40:19.834Z,18.05
2024-05-09T08:43:16.307Z,18.06
2024-05-09T08:46:04.224Z,18.18
2024-05-09T08:48:52.704Z,18.21
2024-05-09T08:51:39.408Z,18.28
2024-05-09T08:54:25.363Z,18.29
2024-05-09T08:57:12.776Z,18.28
2024-05-09T09:00:04.833Z,18.41
2024-05-09T09:02:52.869Z,18.49
2024-05-09T09:05:40.645Z,18.52
2024-05-09T09:08:28.244Z,18.61
2024-05-09T09:11:14.588Z,18.74
2024-05-09T09:14:00.667Z,18.80
2024-05-09T09:16:46.927Z,18.87
2024-05-09T09:19:33.568Z,18.94
2024-05-09T09:22:21.461Z,19.03
2024-05-09T09:25:08.792Z,18.96
2024-05-09T09:27:54.943Z,19.01
2024-05-09T09:30:42.065Z,19.13
2024-05-09T09:33:35.367Z,19.20
2024-05-09T09:36:22.038Z,19.18
2024-05-09T09:39:09.525Z,19.05
2024-05-09T09:41:56.376Z,18.93
2024-05-09T09:44:47.873Z,19.06
2024-05-09T09:47:39.781Z,19.11
2024-05-09T09:50:33.381Z,19.14
2024-05-09T09:53:22.816Z,19.33
2024-05-09T09:56:10.258Z,19.43
2024-05-09T09:58:57.258Z,19.55
2024-05-09T10:01:44.666Z,19.62
2024-05-09T10:04:34.965Z,19.73
2024-05-09T10:07:22.158Z,19.78
2024-05-09T10:10:11.134Z,19.81
2024-05-09T10:13:09.517Z,19.82
2024-05-09T10:15:55.872Z,19.90
2024-05-09T10:18:42.515Z,19.85
2024-05-09T10:21:29.148Z,19.72
2024-05-09T10:24:18.862Z,19.74
2024-05-09T10:27:05.000Z,19.77
2024-05-09T10:29:55.161Z,19.81
2024-05-09T10:32:41.481Z,19.96
2024-05-09T10:35:31.171Z,20.00
2024-05-09T10:38:17.729Z,20.20
2024-05-09T10:41:04.722Z,20.16
2024-05-09T10:43:51.407Z,20.15
2024-05-09T10:46:37.443Z,20.10
2024-05-09T10:49:23.862Z,20.04
2024-05-09T10:52:10.211Z,19.98
2024-05-09T10:54:56.672Z,19.97
2024-05-09T10:57:43.176Z,19.90
2024-05-09T11:00:36.040Z,19.74
2024-05-09T11:03:23.964Z,19.50
2024-05-09T11:06:11.142Z,19.31
2024-05-09T11:08:57.594Z,19.32
2024-05-09T11:11:43.904Z,19.46
2024-05-09T11:14:30.514Z,19.59
2024-05-09T11:17:16.968Z,19.70
2024-05-09T11:20:13.318Z,19.81
2024-05-09T11:23:06.834Z,19.96
2024-05-09T11:25:55.419Z,20.10
2024-05-09T11:28:46.070Z,20.19
2024-05-09T11:31:32.813Z,20.41
2024-05-09T11:34:19.396Z,20.61
2024-05-09T11:37:05.662Z,20.59
2024-05-09T11:39:53.763Z,20.54
2024-05-09T11:42:40.147Z,20.60
2024-05-09T11:45:27.217Z,20.71
2024-05-09T11:48:13.755Z,20.82
2024-05-09T11:51:01.775Z,20.89
2024-05-09T11:53:48.117Z,20.74
2024-05-09T11:56:37.714Z,20.69
2024-05-09T11:59:24.663Z,20.74
2024-05-09T12:02:11.117Z,20.81
2024-05-09T12:04:57.497Z,20.68
2024-05-09T12:07:43.857Z,20.76
2024-05-09T12:10:33.890Z,20.82
2024-05-09T12:13:22.128Z,20.86
2024-05-09T12:16:09.381Z,21.00
2024-05-09T12:18:55.827Z,21.24
2024-05-09T12:21:42.200Z,21.32
2024-05-09T12:24:30.338Z,21.42
2024-05-09T12:27:16.744Z,21.35
2024-05-09T12:30:04.677Z,21.23
2024-05-09T12:32:52.134Z,21.27
2024-05-09T12:35:38.504Z,21.39
2024-05-09T12:38:24.807Z,21.31
2024-05-09T12:41:10.985Z,21.27
2024-05-09T12:43:57.098Z,21.36
2024-05-09T12:46:43.357Z,21.41
2024-05-09T12:49:30.020Z,21.25
2024-05-09T12:52:16.741Z,21.29
2024-05-09T12:55:03.894Z,21.31
2024-05-09T12:57:50.489Z,21.40
2024-05-09T13:00:37.026Z,21.51
2024-05-09T13:03:23.261Z,21.53
2024-05-09T13:06:09.701Z,21.63
2024-05-09T13:08:58.146Z,21.68
2024-05-09T13:11:44.321Z,21.77
2024-05-09T13:14:30.355Z,21.91
2024-05-09T13:17:16.889Z,21.98
2024-05-09T13:20:04.275Z,22.12
2024-05-09T13:22:51.390Z,22.17
2024-05-09T13:25:38.247Z,22.07
2024-05-09T13:28:25.171Z,21.79
2024-05-09T13:31:11.599Z,21.68
2024-05-09T13:33:57.886Z,21.65
2024-05-09T13:36:44.160Z,21.55
2024-05-09T13:39:30.637Z,21.34
2024-05-09T13:42:17.365Z,21.31
2024-05-09T13:45:03.940Z,21.40
2024-05-09T13:47:50.428Z,21.48
2024-05-09T13:50:37.142Z,21.45
2024-05-09T13:53:25.100Z,21.41
2024-05-09T13:56:14.736Z,21.39
2024-05-09T13:59:00.698Z,21.35
2024-05-09T14:01:47.056Z,21.26
2024-05-09T14:04:33.403Z,21.23
2024-05-09T14:07:20.177Z,21.22
2024-05-09T14:10:13.711Z,21.12
2024-05-09T14:13:05.907Z,21.02
2024-05-09T14:15:52.377Z,20.97
2024-05-09T14:18:38.745Z,20.90
2024-05-09T14:21:25.240Z,20.81
2024-05-09T14:24:11.448Z,20.77
2024-05-09T14:26:57.632Z,20.74
2024-05-09T14:29:44.194Z,20.60
2024-05-09T14:32:30.896Z,20.51
2024-05-09T14:35:17.316Z,20.43
2024-05-09T14:38:06.267Z,20.39
2024-05-09T14:40:53.444Z,20.37
2024-05-09T14:43:39.575Z,20.40
2024-05-09T14:46:25.877Z,20.45
2024-05-09T14:49:12.743Z,20.43
2024-05-09T14:51:58.940Z,20.32
2024-05-09T14:54:45.020Z,20.25
2024-05-09T14:57:31.635Z,20.22
2024-05-09T15:00:26.077Z,20.15
2024-05-09T15:03:16.057Z,20.14
2024-05-09T15:06:02.757Z,20.13
2024-05-09T15:08:56.627Z,20.05
2024-05-09T15:11:43.775Z,19.94
2024-05-09T15:14:30.082Z,19.93
2024-05-09T15:17:16.609Z,19.99
2024-05-09T15:20:05.907Z,19.97
2024-05-09T15:22:55.441Z,19.90
2024-05-09T15:25:41.755Z,19.89
2024-05-09T15:28:28.297Z,19.90
2024-05-09T15:31:14.473Z,19.87
2024-05-09T15:34:01.082Z,19.87
2024-05-09T15:36:50.850Z,19.88
2024-05-09T15:39:37.360Z,19.89
2024-05-09T15:42:24.076Z,19.93
2024-05-09T15:45:10.324Z,19.95
2024-05-09T15:47:58.640Z,19.97
2024-05-09T15:50:45.300Z,19.94
2024-05-09T15:53:31.514Z,19.89
2024-05-09T15:56:17.659Z,19.86
2024-05-09T15:59:04.133Z,19.80
2024-05-09T16:01:51.546Z,19.71
2024-05-09T16:04:37.991Z,19.60
2024-05-09T16:07:24.602Z,19.49
2024-05-09T16:10:13.255Z,19.45
2024-05-09T16:13:05.987Z,19.45
2024-05-09T16:15:52.875Z,19.46
2024-05-09T16:18:39.614Z,19.51
2024-05-09T16:21:25.928Z,19.53
2024-05-09T16:24:12.120Z,19.48
2024-05-09T16:27:01.411Z,19.40
2024-05-09T16:29:47.704Z,19.38
2024-05-09T16:32:34.260Z,19.37
2024-05-09T16:35:20.223Z,19.34
2024-05-09T16:38:06.500Z,19.31
2024-05-09T16:40:52.953Z,19.25
2024-05-09T16:43:38.997Z,19.18
2024-05-09T16:46:25.287Z,19.15
2024-05-09T16:49:11.599Z,19.11
2024-05-09T16:51:58.264Z,19.08
2024-05-09T16:54:47.019Z,19.05
2024-05-09T16:57:33.606Z,19.00
2024-05-09T17:00:30.910Z,18.92
2024-05-09T17:03:25.622Z,18.86
2024-05-09T17:06:11.641Z,18.78
2024-05-09T17:09:04.895Z,18.71
2024-05-09T17:11:54.378Z,18.67
2024-05-09T17:14:40.431Z,18.64
2024-05-09T17:17:26.745Z,18.59
2024-05-09T17:20:23.097Z,18.54
2024-05-09T17:23:16.144Z,18.47
2024-05-09T17:26:02.411Z,18.40
2024-05-09T17:28:50.181Z,18.36
2024-05-09T17:31:36.760Z,18.29
2024-05-09T17:34:23.704Z,18.21
2024-05-09T17:37:10.011Z,18.17
2024-05-09T17:39:57.029Z,18.13
2024-05-09T17:42:43.285Z,18.07
2024-05-09T17:45:29.497Z,18.01
2024-05-09T17:48:16.998Z,17.93
2024-05-09T17:51:03.344Z,17.85
2024-05-09T17:53:50.090Z,17.79
2024-05-09T17:56:36.310Z,17.70
2024-05-09T17:59:22.624Z,17.61
2024-05-09T18:02:09.494Z,17.54
2024-05-09T18:04:55.830Z,17.46
2024-05-09T18:07:41.974Z,17.41
2024-05-09T18:10:35.222Z,17.35
2024-05-09T18:13:26.089Z,17.25
2024-05-09T18:16:13.152Z,17.17
2024-05-09T18:18:59.751Z,17.08
2024-05-09T18:21:46.086Z,17.01
2024-05-09T18:24:32.564Z,16.94
2024-05-09T18:27:19.049Z,16.83
2024-05-09T18:30:09.467Z,16.72
2024-05-09T18:32:58.024Z,16.63
2024-05-09T18:35:45.244Z,16.49
2024-05-09T18:38:31.911Z,16.33
2024-05-09T18:41:20.672Z,16.21
2024-05-09T18:44:06.860Z,16.13
2024-05-09T18:46:53.349Z,16.02
2024-05-09T18:49:39.824Z,15.87
2024-05-09T18:52:25.827Z,15.75
2024-05-09T18:55:14.014Z,15.68
2024-05-09T18:58:00.367Z,15.63
2024-05-09T19:00:50.211Z,15.57
2024-05-09T19:03:38.805Z,15.49
2024-05-09T19:06:25.606Z,15.41
2024-05-09T19:09:12.027Z,15.36
2024-05-09T19:12:02.993Z,15.31
2024-05-09T19:14:49.405Z,15.25
2024-05-09T19:17:39.608Z,15.18
2024-05-09T19:20:31.929Z,15.13
2024-05-09T19:23:21.269Z,15.08
2024-05-09T19:26:08.395Z,14.99
2024-05-09T19:28:55.012Z,14.95
2024-05-09T19:31:41.220Z,14.91
2024-05-09T19:34:28.167Z,14.85
2024-05-09T19:37:14.685Z,14.69
2024-05-09T19:40:01.081Z,14.41
2024-05-09T19:42:47.442Z,14.20
2024-05-09T19:45:35.003Z,14.03
2024-05-09T19:48:22.502Z,13.96
2024-05-09T19:51:08.699Z,13.97
2024-05-09T19:53:55.153Z,14.00
2024-05-09T19:56:44.971Z,13.99
2024-05-09T19:59:31.560Z,14.01
2024-05-09T20:02:19.292Z,14.01
2024-05-09T20:05:05.844Z,14.01
2024-05-09T20:07:52.052Z,14.00
2024-05-09T20:10:38.713Z,13.99
2024-05-09T20:13:25.157Z,13.96
2024-05-09T20:16:11.786Z,13.91
2024-05-09T20:18:58.347Z,13.84
2024-05-09T20:21:45.101Z,13.80
2024-05-09T20:24:31.465Z,13.78
2024-05-09T20:27:17.700Z,13.71
2024-05-09T20:30:09.727Z,13.55
2024-05-09T20:33:00.213Z,13.47
2024-05-09T20:35:47.256Z,13.46
2024-05-09T20:38:34.010Z,13.43
2024-05-09T20:41:21.116Z,13.36
2024-05-09T20:44:07.283Z,13.32
2024-05-09T20:46:54.009Z,13.28
2024-05-09T20:49:42.068Z,13.16
2024-05-09T20:52:28.635Z,13.05
2024-05-09T20:55:16.279Z,13.02
2024-05-09T20:58:02.491Z,12.93
2024-05-09T21:00:51.359Z,12.95
2024-05-09T21:03:38.281Z,12.97
2024-05-09T21:06:27.139Z,12.99
2024-05-09T21:09:13.412Z,12.99
2024-05-09T21:11:59.776Z,12.94
2024-05-09T21:14:45.719Z,12.86
2024-05-09T21:17:32.112Z,12.83
2024-05-09T21:20:23.997Z,12.82
2024-05-09T21:23:15.231Z,12.78
2024-05-09T21:26:01.767Z,12.76
2024-05-09T21:28:48.166Z,12.73
2024-05-09T21:31:34.437Z,12.67
2024-05-09T21:34:20.563Z,12.60
2024-05-09T21:37:06.604Z,12.56
2024-05-09T21:39:52.665Z,12.49
2024-05-09T21:42:38.760Z,12.43
2024-05-09T21:45:24.645Z,12.42
2024-05-09T21:48:12.605Z,12.38
2024-05-09T21:50:59.031Z,12.30
2024-05-09T21:53:45.284Z,12.28
2024-05-09T21:56:31.353Z,12.28
2024-05-09T21:59:19.870Z,12.26
2024-05-09T22:02:05.948Z,12.20
2024-05-09T22:04:52.374Z,12.11
2024-05-09T22:07:39.021Z,12.04
2024-05-09T22:10:31.096Z,11.95
2024-05-09T22:13:20.741Z,11.89
2024-05-09T22:16:07.881Z,11.91
2024-05-09T22:18:54.384Z,11.92
2024-05-09T22:21:40.970Z,11.89
2024-05-09T22:24:27.397Z,11.84
2024-05-09T22:27:13.539Z,11.78
2024-05-09T22:29:59.604Z,11.71
2024-05-09T22:32:49.806Z,11.66
2024-05-09T22:35:35.902Z,11.61
2024-05-09T22:38:21.960Z,11.58
2024-05-09T22:41:09.371Z,11.59
2024-05-09T22:43:55.613Z,11.62
2024-05-09T22:46:41.761Z,11.64
2024-05-09T22:49:29.462Z,11.65
2024-05-09T22:52:15.915Z,11.59
2024-05-09T22:55:01.943Z,11.52
2024-05-09T22:57:48.374Z,11.43
2024-05-09T23:00:34.963Z,11.34
2024-05-09T23:03:22.655Z,11.26
2024-05-09T23:06:08.974Z,11.23
2024-05-09T23:08:55.088Z,11.21
2024-05-09T23:11:42.035Z,11.18
2024-05-09T23:14:28.353Z,11.14
2024-05-09T23:17:14.510Z,11.16
2024-05-09T23:20:00.539Z,11.17
2024-05-09T23:22:46.438Z,11.18
2024-05-09T23:25:33.144Z,11.20
2024-05-09T23:28:19.379Z,11.21
2024-05-09T23:31:05.504Z,11.23
2024-05-09T23:33:51.953Z,11.22
2024-05-09T23:36:38.670Z,11.19
2024-05-09T23:39:24.758Z,11.14
2024-05-09T23:42:10.866Z,11.15
2024-05-09T23:44:58.224Z,11.16
2024-05-09T23:47:45.923Z,11.16
2024-05-09T23:50:36.122Z,11.08
2024-05-09T23:53:24.671Z,11.07
2024-05-09T23:56:15.630Z,11.11
2024-05-09T23:59:01.876Z,11.07
